sensor_id;sensor_type;location;lat;lon;timestamp;temperature;humidity
70826;SHT31;58446;41.490;22.098;2023-02-04T00:01:39;4.65;64.26
70826;SHT31;58446;41.490;22.098;2023-02-04T00:04:04;4.90;64.09
70826;SHT31;58446;41.490;22.098;2023-02-04T00:06:30;5.00;63.93
70826;SHT31;58446;41.490;22.098;2023-02-04T00:08:56;5.09;63.80
70826;SHT31;58446;41.490;22.098;2023-02-04T00:11:21;5.14;63.54
70826;SHT31;58446;41.490;22.098;2023-02-04T00:13:47;5.13;63.63
70826;SHT31;58446;41.490;22.098;2023-02-04T00:16:13;5.07;63.65
70826;SHT31;58446;41.490;22.098;2023-02-04T00:18:38;5.07;63.86
70826;SHT31;58446;41.490;22.098;2023-02-04T00:21:04;4.97;63.90
70826;SHT31;58446;41.490;22.098;2023-02-04T00:23:30;4.97;64.06
70826;SHT31;58446;41.490;22.098;2023-02-04T00:25:55;4.77;64.15
70826;SHT31;58446;41.490;22.098;2023-02-04T00:28:21;4.80;63.80
70826;SHT31;58446;41.490;22.098;2023-02-04T00:30:47;4.84;63.94
70826;SHT31;58446;41.490;22.098;2023-02-04T00:33:13;4.90;64.06
70826;SHT31;58446;41.490;22.098;2023-02-04T00:35:39;4.86;63.57
70826;SHT31;58446;41.490;22.098;2023-02-04T00:38:05;4.97;63.73
70826;SHT31;58446;41.490;22.098;2023-02-04T00:40:32;5.01;63.63
70826;SHT31;58446;41.490;22.098;2023-02-04T00:42:58;4.97;63.78
70826;SHT31;58446;41.490;22.098;2023-02-04T00:45:24;5.06;63.55
70826;SHT31;58446;41.490;22.098;2023-02-04T00:47:49;5.07;63.60
70826;SHT31;58446;41.490;22.098;2023-02-04T00:50:16;5.10;63.51
70826;SHT31;58446;41.490;22.098;2023-02-04T00:52:41;4.94;63.91
70826;SHT31;58446;41.490;22.098;2023-02-04T00:55:07;5.06;63.52
70826;SHT31;58446;41.490;22.098;2023-02-04T00:57:34;5.11;63.24
70826;SHT31;58446;41.490;22.098;2023-02-04T01:00:00;5.10;63.14
70826;SHT31;58446;41.490;22.098;2023-02-04T01:02:26;5.23;63.22
70826;SHT31;58446;41.490;22.098;2023-02-04T01:04:52;5.24;63.11
70826;SHT31;58446;41.490;22.098;2023-02-04T01:07:17;5.27;63.04
70826;SHT31;58446;41.490;22.098;2023-02-04T01:09:43;5.07;63.70
70826;SHT31;58446;41.490;22.098;2023-02-04T01:12:09;5.24;63.33
70826;SHT31;58446;41.490;22.098;2023-02-04T01:14:34;5.07;63.62
70826;SHT31;58446;41.490;22.098;2023-02-04T01:17:00;5.26;63.39
70826;SHT31;58446;41.490;22.098;2023-02-04T01:19:26;5.20;63.30
70826;SHT31;58446;41.490;22.098;2023-02-04T01:21:51;5.21;63.25
70826;SHT31;58446;41.490;22.098;2023-02-04T01:24:18;4.93;64.69
70826;SHT31;58446;41.490;22.098;2023-02-04T01:26:43;4.90;64.70
70826;SHT31;58446;41.490;22.098;2023-02-04T01:29:09;4.94;64.49
70826;SHT31;58446;41.490;22.098;2023-02-04T01:31:35;5.04;64.14
70826;SHT31;58446;41.490;22.098;2023-02-04T01:34:01;4.96;64.61
70826;SHT31;58446;41.490;22.098;2023-02-04T01:36:26;4.93;64.92
70826;SHT31;58446;41.490;22.098;2023-02-04T01:38:52;4.93;64.92
70826;SHT31;58446;41.490;22.098;2023-02-04T01:41:18;4.44;66.69
70826;SHT31;58446;41.490;22.098;2023-02-04T01:43:47;4.41;67.20
70826;SHT31;58446;41.490;22.098;2023-02-04T01:46:14;4.65;66.19
70826;SHT31;58446;41.490;22.098;2023-02-04T01:48:40;4.59;66.58
70826;SHT31;58446;41.490;22.098;2023-02-04T01:51:14;4.53;66.99
70826;SHT31;58446;41.490;22.098;2023-02-04T01:53:41;4.70;66.40
70826;SHT31;58446;41.490;22.098;2023-02-04T01:56:19;4.83;66.04
70826;SHT31;58446;41.490;22.098;2023-02-04T01:58:46;4.86;65.98
70826;SHT31;58446;41.490;22.098;2023-02-04T02:01:15;4.69;67.12
70826;SHT31;58446;41.490;22.098;2023-02-04T02:03:41;4.34;68.41
70826;SHT31;58446;41.490;22.098;2023-02-04T02:06:08;3.62;71.29
70826;SHT31;58446;41.490;22.098;2023-02-04T02:08:35;4.08;69.54
70826;SHT31;58446;41.490;22.098;2023-02-04T02:11:02;3.89;70.35
70826;SHT31;58446;41.490;22.098;2023-02-04T02:13:28;3.89;70.02
70826;SHT31;58446;41.490;22.098;2023-02-04T02:15:53;4.28;69.08
70826;SHT31;58446;41.490;22.098;2023-02-04T02:18:19;4.02;69.87
70826;SHT31;58446;41.490;22.098;2023-02-04T02:20:45;4.48;68.27
70826;SHT31;58446;41.490;22.098;2023-02-04T02:23:53;4.70;67.37
70826;SHT31;58446;41.490;22.098;2023-02-04T02:26:22;4.60;67.65
70826;SHT31;58446;41.490;22.098;2023-02-04T02:28:49;4.59;67.97
70826;SHT31;58446;41.490;22.098;2023-02-04T02:31:17;4.70;67.24
70826;SHT31;58446;41.490;22.098;2023-02-04T02:33:44;4.75;67.31
70826;SHT31;58446;41.490;22.098;2023-02-04T02:36:10;4.27;69.47
70826;SHT31;58446;41.490;22.098;2023-02-04T02:38:36;4.42;68.92
70826;SHT31;58446;41.490;22.098;2023-02-04T02:41:04;4.53;68.15
70826;SHT31;58446;41.490;22.098;2023-02-04T02:43:30;4.24;68.91
70826;SHT31;58446;41.490;22.098;2023-02-04T02:45:58;4.35;68.88
70826;SHT31;58446;41.490;22.098;2023-02-04T02:48:25;3.80;70.60
70826;SHT31;58446;41.490;22.098;2023-02-04T02:50:50;3.90;70.44
70826;SHT31;58446;41.490;22.098;2023-02-04T02:53:17;3.56;71.37
70826;SHT31;58446;41.490;22.098;2023-02-04T02:55:44;3.42;72.03
70826;SHT31;58446;41.490;22.098;2023-02-04T03:00:47;3.91;70.50
70826;SHT31;58446;41.490;22.098;2023-02-04T03:03:18;4.14;70.06
70826;SHT31;58446;41.490;22.098;2023-02-04T03:05:50;4.42;68.94
70826;SHT31;58446;41.490;22.098;2023-02-04T03:08:16;4.21;68.77
70826;SHT31;58446;41.490;22.098;2023-02-04T03:10:43;4.34;68.73
70826;SHT31;58446;41.490;22.098;2023-02-04T03:13:10;4.51;68.29
70826;SHT31;58446;41.490;22.098;2023-02-04T03:15:37;4.69;68.00
70826;SHT31;58446;41.490;22.098;2023-02-04T03:18:02;4.59;67.43
70826;SHT31;58446;41.490;22.098;2023-02-04T03:20:30;4.80;67.45
70826;SHT31;58446;41.490;22.098;2023-02-04T03:22:56;4.46;67.54
70826;SHT31;58446;41.490;22.098;2023-02-04T03:25:23;3.93;69.58
70826;SHT31;58446;41.490;22.098;2023-02-04T03:27:54;4.39;68.57
70826;SHT31;58446;41.490;22.098;2023-02-04T03:30:21;4.52;68.53
70826;SHT31;58446;41.490;22.098;2023-02-04T03:32:47;4.73;67.60
70826;SHT31;58446;41.490;22.098;2023-02-04T03:35:13;3.97;70.64
70826;SHT31;58446;41.490;22.098;2023-02-04T03:37:38;4.21;69.97
70826;SHT31;58446;41.490;22.098;2023-02-04T03:40:05;4.41;69.25
70826;SHT31;58446;41.490;22.098;2023-02-04T03:42:30;4.59;68.33
70826;SHT31;58446;41.490;22.098;2023-02-04T03:44:56;4.52;68.62
70826;SHT31;58446;41.490;22.098;2023-02-04T03:47:22;4.70;68.13
70826;SHT31;58446;41.490;22.098;2023-02-04T03:49:47;4.49;68.55
70826;SHT31;58446;41.490;22.098;2023-02-04T03:52:13;4.29;69.56
70826;SHT31;58446;41.490;22.098;2023-02-04T03:54:39;4.42;69.17
70826;SHT31;58446;41.490;22.098;2023-02-04T03:57:04;4.07;70.39
70826;SHT31;58446;41.490;22.098;2023-02-04T03:59:30;4.42;69.30
70826;SHT31;58446;41.490;22.098;2023-02-04T04:01:56;4.41;69.19
70826;SHT31;58446;41.490;22.098;2023-02-04T04:04:21;4.58;68.40
70826;SHT31;58446;41.490;22.098;2023-02-04T04:06:47;4.65;68.18
70826;SHT31;58446;41.490;22.098;2023-02-04T04:09:13;3.77;71.01
70826;SHT31;58446;41.490;22.098;2023-02-04T04:11:38;4.25;70.06
70826;SHT31;58446;41.490;22.098;2023-02-04T04:14:04;4.45;69.06
70826;SHT31;58446;41.490;22.098;2023-02-04T04:16:29;4.46;68.88
70826;SHT31;58446;41.490;22.098;2023-02-04T04:18:55;4.58;68.51
70826;SHT31;58446;41.490;22.098;2023-02-04T04:21:21;4.53;68.47
70826;SHT31;58446;41.490;22.098;2023-02-04T04:23:46;4.18;69.20
70826;SHT31;58446;41.490;22.098;2023-02-04T04:26:12;3.80;70.49
70826;SHT31;58446;41.490;22.098;2023-02-04T04:28:38;3.60;71.21
70826;SHT31;58446;41.490;22.098;2023-02-04T04:31:03;3.90;71.06
70826;SHT31;58446;41.490;22.098;2023-02-04T04:33:29;4.14;69.91
70826;SHT31;58446;41.490;22.098;2023-02-04T04:35:55;4.31;69.40
70826;SHT31;58446;41.490;22.098;2023-02-04T04:38:20;4.17;70.00
70826;SHT31;58446;41.490;22.098;2023-02-04T04:40:46;3.49;71.42
70826;SHT31;58446;41.490;22.098;2023-02-04T04:43:12;3.77;71.63
70826;SHT31;58446;41.490;22.098;2023-02-04T04:45:37;3.90;70.95
70826;SHT31;58446;41.490;22.098;2023-02-04T04:48:03;3.49;73.00
70826;SHT31;58446;41.490;22.098;2023-02-04T04:50:29;3.95;71.36
70826;SHT31;58446;41.490;22.098;2023-02-04T04:52:54;4.22;70.18
70826;SHT31;58446;41.490;22.098;2023-02-04T04:55:20;3.84;71.61
70826;SHT31;58446;41.490;22.098;2023-02-04T04:57:46;3.70;72.03
70826;SHT31;58446;41.490;22.098;2023-02-04T05:00:16;3.97;71.44
70826;SHT31;58446;41.490;22.098;2023-02-04T05:02:41;4.20;70.69
70826;SHT31;58446;41.490;22.098;2023-02-04T05:05:08;4.24;70.36
70826;SHT31;58446;41.490;22.098;2023-02-04T05:07:34;4.45;69.76
70826;SHT31;58446;41.490;22.098;2023-02-04T05:09:59;4.56;69.27
70826;SHT31;58446;41.490;22.098;2023-02-04T05:12:25;4.27;70.66
70826;SHT31;58446;41.490;22.098;2023-02-04T05:14:50;4.53;69.34
70826;SHT31;58446;41.490;22.098;2023-02-04T05:17:16;4.60;69.14
70826;SHT31;58446;41.490;22.098;2023-02-04T05:19:42;4.60;69.09
70826;SHT31;58446;41.490;22.098;2023-02-04T05:22:08;4.63;68.90
70826;SHT31;58446;41.490;22.098;2023-02-04T05:24:33;4.58;68.73
70826;SHT31;58446;41.490;22.098;2023-02-04T05:26:59;4.58;68.80
70826;SHT31;58446;41.490;22.098;2023-02-04T05:29:24;4.49;69.05
70826;SHT31;58446;41.490;22.098;2023-02-04T05:31:50;4.49;69.31
70826;SHT31;58446;41.490;22.098;2023-02-04T05:34:16;4.34;69.61
70826;SHT31;58446;41.490;22.098;2023-02-04T05:36:41;4.42;69.18
70826;SHT31;58446;41.490;22.098;2023-02-04T05:39:07;4.34;69.32
70826;SHT31;58446;41.490;22.098;2023-02-04T05:41:33;4.31;69.13
70826;SHT31;58446;41.490;22.098;2023-02-04T05:43:58;4.17;69.53
70826;SHT31;58446;41.490;22.098;2023-02-04T05:46:24;4.31;69.61
70826;SHT31;58446;41.490;22.098;2023-02-04T05:48:49;4.41;69.31
70826;SHT31;58446;41.490;22.098;2023-02-04T05:51:15;4.39;69.27
70826;SHT31;58446;41.490;22.098;2023-02-04T05:53:41;4.04;69.29
70826;SHT31;58446;41.490;22.098;2023-02-04T05:56:06;3.76;70.56
70826;SHT31;58446;41.490;22.098;2023-02-04T05:58:32;3.76;70.70
70826;SHT31;58446;41.490;22.098;2023-02-04T06:00:59;3.44;70.86
70826;SHT31;58446;41.490;22.098;2023-02-04T06:03:26;3.59;71.50
70826;SHT31;58446;41.490;22.098;2023-02-04T06:05:51;3.81;71.07
70826;SHT31;58446;41.490;22.098;2023-02-04T06:08:17;4.05;70.23
70826;SHT31;58446;41.490;22.098;2023-02-04T06:10:43;4.21;69.77
70826;SHT31;58446;41.490;22.098;2023-02-04T06:13:09;4.27;69.69
70826;SHT31;58446;41.490;22.098;2023-02-04T06:15:34;4.35;69.34
70826;SHT31;58446;41.490;22.098;2023-02-04T06:18:00;4.38;69.39
70826;SHT31;58446;41.490;22.098;2023-02-04T06:20:26;4.38;69.36
70826;SHT31;58446;41.490;22.098;2023-02-04T06:22:51;4.39;69.30
70826;SHT31;58446;41.490;22.098;2023-02-04T06:25:19;4.38;69.21
70826;SHT31;58446;41.490;22.098;2023-02-04T06:27:45;4.34;69.45
70826;SHT31;58446;41.490;22.098;2023-02-04T06:30:11;4.35;69.41
70826;SHT31;58446;41.490;22.098;2023-02-04T06:32:37;4.35;69.46
70826;SHT31;58446;41.490;22.098;2023-02-04T06:35:03;4.28;69.69
70826;SHT31;58446;41.490;22.098;2023-02-04T06:37:29;4.29;69.80
70826;SHT31;58446;41.490;22.098;2023-02-04T06:39:55;4.22;69.85
70826;SHT31;58446;41.490;22.098;2023-02-04T06:42:22;4.22;70.13
70826;SHT31;58446;41.490;22.098;2023-02-04T06:44:49;4.28;69.96
70826;SHT31;58446;41.490;22.098;2023-02-04T06:47:15;4.38;69.89
70826;SHT31;58446;41.490;22.098;2023-02-04T06:49:41;4.32;70.15
70826;SHT31;58446;41.490;22.098;2023-02-04T06:52:06;4.27;70.62
70826;SHT31;58446;41.490;22.098;2023-02-04T06:54:32;4.37;70.16
70826;SHT31;58446;41.490;22.098;2023-02-04T06:56:58;4.42;70.32
70826;SHT31;58446;41.490;22.098;2023-02-04T06:59:32;4.49;70.03
70826;SHT31;58446;41.490;22.098;2023-02-04T07:01:58;4.55;70.14
70826;SHT31;58446;41.490;22.098;2023-02-04T07:04:24;4.51;70.35
70826;SHT31;58446;41.490;22.098;2023-02-04T07:06:49;4.42;71.01
70826;SHT31;58446;41.490;22.098;2023-02-04T07:09:15;4.24;71.40
70826;SHT31;58446;41.490;22.098;2023-02-04T07:11:41;4.42;70.90
70826;SHT31;58446;41.490;22.098;2023-02-04T07:14:06;4.48;71.13
70826;SHT31;58446;41.490;22.098;2023-02-04T07:16:32;4.70;69.76
70826;SHT31;58446;41.490;22.098;2023-02-04T07:18:58;4.77;69.76
70826;SHT31;58446;41.490;22.098;2023-02-04T07:21:24;4.75;70.18
70826;SHT31;58446;41.490;22.098;2023-02-04T07:23:49;4.55;71.15
70826;SHT31;58446;41.490;22.098;2023-02-04T07:26:15;4.60;71.24
70826;SHT31;58446;41.490;22.098;2023-02-04T07:28:41;4.59;71.24
70826;SHT31;58446;41.490;22.098;2023-02-04T07:31:07;4.48;72.21
70826;SHT31;58446;41.490;22.098;2023-02-04T07:33:33;4.41;72.28
70826;SHT31;58446;41.490;22.098;2023-02-04T07:35:59;4.65;71.73
70826;SHT31;58446;41.490;22.098;2023-02-04T07:38:24;4.77;71.03
70826;SHT31;58446;41.490;22.098;2023-02-04T07:40:50;5.38;69.41
70826;SHT31;58446;41.490;22.098;2023-02-04T07:43:15;5.48;68.80
70826;SHT31;58446;41.490;22.098;2023-02-04T07:45:41;5.23;69.94
70826;SHT31;58446;41.490;22.098;2023-02-04T07:48:06;4.94;71.10
70826;SHT31;58446;41.490;22.098;2023-02-04T07:50:32;4.73;71.82
70826;SHT31;58446;41.490;22.098;2023-02-04T07:52:58;4.82;71.29
70826;SHT31;58446;41.490;22.098;2023-02-04T07:55:23;4.83;71.28
70826;SHT31;58446;41.490;22.098;2023-02-04T07:57:49;4.99;70.64
70826;SHT31;58446;41.490;22.098;2023-02-04T08:00:15;5.17;71.44
70826;SHT31;58446;41.490;22.098;2023-02-04T08:02:41;5.20;70.22
70826;SHT31;58446;41.490;22.098;2023-02-04T08:05:07;5.14;70.56
70826;SHT31;58446;41.490;22.098;2023-02-04T08:07:33;5.16;70.68
70826;SHT31;58446;41.490;22.098;2023-02-04T08:09:58;5.37;70.30
70826;SHT31;58446;41.490;22.098;2023-02-04T08:12:24;5.42;69.62
70826;SHT31;58446;41.490;22.098;2023-02-04T08:14:49;5.75;69.14
70826;SHT31;58446;41.490;22.098;2023-02-04T08:17:15;5.89;68.23
70826;SHT31;58446;41.490;22.098;2023-02-04T08:19:41;6.07;68.48
70826;SHT31;58446;41.490;22.098;2023-02-04T08:22:06;6.40;67.08
70826;SHT31;58446;41.490;22.098;2023-02-04T08:24:32;6.55;65.97
70826;SHT31;58446;41.490;22.098;2023-02-04T08:26:58;6.75;65.22
70826;SHT31;58446;41.490;22.098;2023-02-04T08:29:23;7.06;65.64
70826;SHT31;58446;41.490;22.098;2023-02-04T08:31:52;7.50;64.82
70826;SHT31;58446;41.490;22.098;2023-02-04T08:34:18;7.67;62.39
70826;SHT31;58446;41.490;22.098;2023-02-04T08:36:43;7.69;62.77
70826;SHT31;58446;41.490;22.098;2023-02-04T08:39:09;7.77;61.96
70826;SHT31;58446;41.490;22.098;2023-02-04T08:41:36;8.09;62.05
70826;SHT31;58446;41.490;22.098;2023-02-04T08:44:02;8.38;60.61
70826;SHT31;58446;41.490;22.098;2023-02-04T08:46:28;8.62;60.41
70826;SHT31;58446;41.490;22.098;2023-02-04T08:48:53;8.86;59.96
70826;SHT31;58446;41.490;22.098;2023-02-04T08:51:19;9.10;58.90
70826;SHT31;58446;41.490;22.098;2023-02-04T08:53:45;8.93;58.69
70826;SHT31;58446;41.490;22.098;2023-02-04T08:56:10;8.96;58.30
70826;SHT31;58446;41.490;22.098;2023-02-04T08:58:41;8.86;58.54
70826;SHT31;58446;41.490;22.098;2023-02-04T09:01:07;8.56;59.01
70826;SHT31;58446;41.490;22.098;2023-02-04T09:03:36;8.75;59.25
70826;SHT31;58446;41.490;22.098;2023-02-04T09:06:01;8.46;60.46
70826;SHT31;58446;41.490;22.098;2023-02-04T09:08:27;8.26;60.89
70826;SHT31;58446;41.490;22.098;2023-02-04T09:10:53;8.15;60.96
70826;SHT31;58446;41.490;22.098;2023-02-04T09:13:18;8.28;61.69
70826;SHT31;58446;41.490;22.098;2023-02-04T09:15:44;7.94;60.51
70826;SHT31;58446;41.490;22.098;2023-02-04T09:18:09;7.93;60.93
70826;SHT31;58446;41.490;22.098;2023-02-04T09:20:43;7.66;62.69
70826;SHT31;58446;41.490;22.098;2023-02-04T09:23:09;7.60;62.65
70826;SHT31;58446;41.490;22.098;2023-02-04T09:25:40;7.42;63.51
70826;SHT31;58446;41.490;22.098;2023-02-04T09:28:07;7.27;62.53
70826;SHT31;58446;41.490;22.098;2023-02-04T09:30:40;7.29;63.65
70826;SHT31;58446;41.490;22.098;2023-02-04T09:33:06;7.18;64.04
70826;SHT31;58446;41.490;22.098;2023-02-04T09:35:32;7.15;63.98
70826;SHT31;58446;41.490;22.098;2023-02-04T09:37:58;7.15;63.91
70826;SHT31;58446;41.490;22.098;2023-02-04T09:40:26;7.19;64.15
70826;SHT31;58446;41.490;22.098;2023-02-04T09:42:53;7.16;63.76
70826;SHT31;58446;41.490;22.098;2023-02-04T09:45:25;7.19;63.77
70826;SHT31;58446;41.490;22.098;2023-02-04T09:47:52;7.26;64.20
70826;SHT31;58446;41.490;22.098;2023-02-04T09:50:21;7.34;63.74
70826;SHT31;58446;41.490;22.098;2023-02-04T09:52:49;7.49;64.40
70826;SHT31;58446;41.490;22.098;2023-02-04T09:55:17;7.60;63.40
70826;SHT31;58446;41.490;22.098;2023-02-04T09:57:44;7.67;62.86
70826;SHT31;58446;41.490;22.098;2023-02-04T10:00:21;7.81;63.87
70826;SHT31;58446;41.490;22.098;2023-02-04T10:02:47;7.88;64.12
70826;SHT31;58446;41.490;22.098;2023-02-04T10:05:18;7.91;62.98
70826;SHT31;58446;41.490;22.098;2023-02-04T10:07:45;7.93;62.39
70826;SHT31;58446;41.490;22.098;2023-02-04T10:10:18;7.99;62.08
70826;SHT31;58446;41.490;22.098;2023-02-04T10:12:45;7.98;61.80
70826;SHT31;58446;41.490;22.098;2023-02-04T10:15:14;7.88;63.08
70826;SHT31;58446;41.490;22.098;2023-02-04T10:17:41;7.84;62.70
70826;SHT31;58446;41.490;22.098;2023-02-04T10:20:14;7.95;62.38
70826;SHT31;58446;41.490;22.098;2023-02-04T10:22:40;7.97;62.38
70826;SHT31;58446;41.490;22.098;2023-02-04T10:25:17;7.94;62.93
70826;SHT31;58446;41.490;22.098;2023-02-04T10:27:54;8.11;63.42
70826;SHT31;58446;41.490;22.098;2023-02-04T10:30:26;8.18;63.19
70826;SHT31;58446;41.490;22.098;2023-02-04T10:32:53;8.15;61.92
70826;SHT31;58446;41.490;22.098;2023-02-04T10:35:20;8.04;62.75
70826;SHT31;58446;41.490;22.098;2023-02-04T10:37:46;8.06;63.61
70826;SHT31;58446;41.490;22.098;2023-02-04T10:40:34;8.04;62.81
70826;SHT31;58446;41.490;22.098;2023-02-04T10:43:17;8.21;63.14
70826;SHT31;58446;41.490;22.098;2023-02-04T10:45:46;8.02;62.82
70826;SHT31;58446;41.490;22.098;2023-02-04T10:48:18;8.20;64.10
70826;SHT31;58446;41.490;22.098;2023-02-04T10:50:45;8.25;62.54
70826;SHT31;58446;41.490;22.098;2023-02-04T10:53:20;8.11;62.82
70826;SHT31;58446;41.490;22.098;2023-02-04T10:56:23;8.08;63.75
70826;SHT31;58446;41.490;22.098;2023-02-04T10:58:49;8.16;63.40
70826;SHT31;58446;41.490;22.098;2023-02-04T11:01:15;8.14;63.31
70826;SHT31;58446;41.490;22.098;2023-02-04T11:03:42;7.98;64.37
70826;SHT31;58446;41.490;22.098;2023-02-04T11:06:15;7.95;64.19
70826;SHT31;58446;41.490;22.098;2023-02-04T11:08:42;8.02;66.20
70826;SHT31;58446;41.490;22.098;2023-02-04T11:11:16;8.11;65.55
70826;SHT31;58446;41.490;22.098;2023-02-04T11:21:24;8.48;66.52
70826;SHT31;58446;41.490;22.098;2023-02-04T11:24:23;8.55;64.85
70826;SHT31;58446;41.490;22.098;2023-02-04T11:26:50;8.55;65.69
70826;SHT31;58446;41.490;22.098;2023-02-04T11:29:34;8.63;64.29
70826;SHT31;58446;41.490;22.098;2023-02-04T11:32:32;8.69;64.88
70826;SHT31;58446;41.490;22.098;2023-02-04T11:37:41;8.73;65.64
70826;SHT31;58446;41.490;22.098;2023-02-04T11:40:29;8.77;64.59
70826;SHT31;58446;41.490;22.098;2023-02-04T11:43:14;8.75;64.61
70826;SHT31;58446;41.490;22.098;2023-02-04T11:45:41;8.80;63.27
70826;SHT31;58446;41.490;22.098;2023-02-04T11:48:15;8.83;64.31
70826;SHT31;58446;41.490;22.098;2023-02-04T11:50:41;8.80;63.26
70826;SHT31;58446;41.490;22.098;2023-02-04T11:53:10;8.84;63.12
70826;SHT31;58446;41.490;22.098;2023-02-04T11:55:42;8.84;63.40
70826;SHT31;58446;41.490;22.098;2023-02-04T11:58:15;8.90;65.06
70826;SHT31;58446;41.490;22.098;2023-02-04T12:00:41;9.04;64.11
70826;SHT31;58446;41.490;22.098;2023-02-04T12:03:23;9.21;64.34
70826;SHT31;58446;41.490;22.098;2023-02-04T12:05:50;9.30;62.33
70826;SHT31;58446;41.490;22.098;2023-02-04T12:11:12;9.27;62.38
70826;SHT31;58446;41.490;22.098;2023-02-04T12:13:53;9.27;62.14
70826;SHT31;58446;41.490;22.098;2023-02-04T12:16:19;9.28;63.26
70826;SHT31;58446;41.490;22.098;2023-02-04T12:18:45;9.28;62.49
70826;SHT31;58446;41.490;22.098;2023-02-04T12:21:11;9.31;62.55
70826;SHT31;58446;41.490;22.098;2023-02-04T12:23:38;9.30;62.79
70826;SHT31;58446;41.490;22.098;2023-02-04T12:26:04;9.31;63.28
70826;SHT31;58446;41.490;22.098;2023-02-04T12:28:30;9.31;63.42
70826;SHT31;58446;41.490;22.098;2023-02-04T12:30:56;9.24;62.41
70826;SHT31;58446;41.490;22.098;2023-02-04T12:33:21;9.14;62.57
70826;SHT31;58446;41.490;22.098;2023-02-04T12:35:47;9.07;63.39
70826;SHT31;58446;41.490;22.098;2023-02-04T12:38:13;9.15;62.72
70826;SHT31;58446;41.490;22.098;2023-02-04T12:40:39;9.27;64.07
70826;SHT31;58446;41.490;22.098;2023-02-04T12:43:05;9.46;63.88
70826;SHT31;58446;41.490;22.098;2023-02-04T12:45:31;9.74;62.06
70826;SHT31;58446;41.490;22.098;2023-02-04T12:47:57;9.83;62.93
70826;SHT31;58446;41.490;22.098;2023-02-04T12:50:23;9.89;61.38
70826;SHT31;58446;41.490;22.098;2023-02-04T12:52:53;9.95;61.23
70826;SHT31;58446;41.490;22.098;2023-02-04T12:55:20;9.96;61.02
70826;SHT31;58446;41.490;22.098;2023-02-04T12:57:46;10.10;59.95
70826;SHT31;58446;41.490;22.098;2023-02-04T13:00:13;10.18;59.92
70826;SHT31;58446;41.490;22.098;2023-02-04T13:02:39;10.23;60.07
70826;SHT31;58446;41.490;22.098;2023-02-04T13:05:05;10.14;59.08
70826;SHT31;58446;41.490;22.098;2023-02-04T13:07:31;10.06;58.39
70826;SHT31;58446;41.490;22.098;2023-02-04T13:09:58;9.89;59.46
70826;SHT31;58446;41.490;22.098;2023-02-04T13:12:24;9.54;59.51
70826;SHT31;58446;41.490;22.098;2023-02-04T13:14:50;9.41;59.96
70826;SHT31;58446;41.490;22.098;2023-02-04T13:17:16;9.46;60.45
70826;SHT31;58446;41.490;22.098;2023-02-04T13:19:41;9.41;59.93
70826;SHT31;58446;41.490;22.098;2023-02-04T13:22:07;9.32;60.54
70826;SHT31;58446;41.490;22.098;2023-02-04T13:24:33;9.37;60.69
70826;SHT31;58446;41.490;22.098;2023-02-04T13:26:58;9.39;60.26
70826;SHT31;58446;41.490;22.098;2023-02-04T13:29:24;9.38;60.00
70826;SHT31;58446;41.490;22.098;2023-02-04T13:31:49;9.38;60.06
70826;SHT31;58446;41.490;22.098;2023-02-04T13:34:16;9.18;60.25
70826;SHT31;58446;41.490;22.098;2023-02-04T13:36:42;9.01;60.40
70826;SHT31;58446;41.490;22.098;2023-02-04T13:39:09;8.90;60.88
70826;SHT31;58446;41.490;22.098;2023-02-04T13:41:35;8.86;61.25
70826;SHT31;58446;41.490;22.098;2023-02-04T13:44:01;8.77;62.24
70826;SHT31;58446;41.490;22.098;2023-02-04T13:46:27;8.69;62.83
70826;SHT31;58446;41.490;22.098;2023-02-04T13:48:52;8.56;63.26
70826;SHT31;58446;41.490;22.098;2023-02-04T13:51:18;8.55;63.43
70826;SHT31;58446;41.490;22.098;2023-02-04T13:53:44;8.57;63.45
70826;SHT31;58446;41.490;22.098;2023-02-04T13:56:09;8.56;63.20
70826;SHT31;58446;41.490;22.098;2023-02-04T13:58:35;8.66;63.35
70826;SHT31;58446;41.490;22.098;2023-02-04T14:01:01;8.69;63.19
70826;SHT31;58446;41.490;22.098;2023-02-04T14:03:28;8.69;63.39
70826;SHT31;58446;41.490;22.098;2023-02-04T14:05:54;8.81;63.01
70826;SHT31;58446;41.490;22.098;2023-02-04T14:08:21;8.81;62.95
70826;SHT31;58446;41.490;22.098;2023-02-04T14:10:48;8.73;62.80
70826;SHT31;58446;41.490;22.098;2023-02-04T14:13:13;8.75;62.70
70826;SHT31;58446;41.490;22.098;2023-02-04T14:15:39;8.87;62.12
70826;SHT31;58446;41.490;22.098;2023-02-04T14:18:06;8.96;61.74
70826;SHT31;58446;41.490;22.098;2023-02-04T14:20:33;8.93;61.27
70826;SHT31;58446;41.490;22.098;2023-02-04T14:22:58;8.87;61.33
70826;SHT31;58446;41.490;22.098;2023-02-04T14:25:24;8.83;60.73
70826;SHT31;58446;41.490;22.098;2023-02-04T14:27:50;8.72;60.03
70826;SHT31;58446;41.490;22.098;2023-02-04T14:30:19;8.67;59.59
70826;SHT31;58446;41.490;22.098;2023-02-04T14:32:45;8.69;59.52
70826;SHT31;58446;41.490;22.098;2023-02-04T14:35:11;8.67;59.67
70826;SHT31;58446;41.490;22.098;2023-02-04T14:37:37;8.70;60.30
70826;SHT31;58446;41.490;22.098;2023-02-04T14:40:04;8.63;60.27
70826;SHT31;58446;41.490;22.098;2023-02-04T14:42:30;8.67;60.56
70826;SHT31;58446;41.490;22.098;2023-02-04T14:44:55;8.59;60.81
70826;SHT31;58446;41.490;22.098;2023-02-04T14:47:21;8.53;60.82
70826;SHT31;58446;41.490;22.098;2023-02-04T14:49:47;8.49;61.07
70826;SHT31;58446;41.490;22.098;2023-02-04T14:52:13;8.52;61.30
70826;SHT31;58446;41.490;22.098;2023-02-04T14:54:39;8.52;61.17
70826;SHT31;58446;41.490;22.098;2023-02-04T14:57:05;8.45;61.37
70826;SHT31;58446;41.490;22.098;2023-02-04T14:59:31;7.50;66.30
70826;SHT31;58446;41.490;22.098;2023-02-04T15:01:57;6.24;72.10
70826;SHT31;58446;41.490;22.098;2023-02-04T15:04:22;5.71;74.99
70826;SHT31;58446;41.490;22.098;2023-02-04T15:06:48;5.40;76.08
70826;SHT31;58446;41.490;22.098;2023-02-04T15:09:18;5.27;76.64
70826;SHT31;58446;41.490;22.098;2023-02-04T15:11:43;5.40;76.58
70826;SHT31;58446;41.490;22.098;2023-02-04T15:14:09;5.52;76.08
70826;SHT31;58446;41.490;22.098;2023-02-04T15:16:35;5.75;75.46
70826;SHT31;58446;41.490;22.098;2023-02-04T15:19:00;5.81;75.19
70826;SHT31;58446;41.490;22.098;2023-02-04T15:21:26;5.85;74.92
70826;SHT31;58446;41.490;22.098;2023-02-04T15:23:51;5.92;74.90
70826;SHT31;58446;41.490;22.098;2023-02-04T15:26:17;5.99;74.35
70826;SHT31;58446;41.490;22.098;2023-02-04T15:28:43;5.99;74.12
70826;SHT31;58446;41.490;22.098;2023-02-04T15:31:09;5.96;74.11
70826;SHT31;58446;41.490;22.098;2023-02-04T15:33:36;6.01;73.97
70826;SHT31;58446;41.490;22.098;2023-02-04T15:36:02;6.09;73.45
70826;SHT31;58446;41.490;22.098;2023-02-04T15:38:28;6.16;73.28
70826;SHT31;58446;41.490;22.098;2023-02-04T15:40:54;6.23;73.08
70826;SHT31;58446;41.490;22.098;2023-02-04T15:43:19;6.23;73.30
70826;SHT31;58446;41.490;22.098;2023-02-04T15:45:45;6.32;72.76